»·PEaware :: SWA5150 KPHX-KLAS

SWA5150 :: KPHX-KLAS

FLIGHT INFORMATION

Flight Status: Arrived
Operator:
Southwest Airlines
More flights by this operator :: More flights under this callsign
Pilot: Anonymous 17686 (17686)
Aircraft: BOEING 737-700
(B737)
More flights by this aircraft type
Origin: KPHX Phoenix Sky Harbor Intl
United States
Destination: KLAS McCarran Intl
United States
More flights between these airports :: More routes between these airports
Route: +MAYSA5 SISIE IGM TYSSN5
File this flight plan on PilotEdge
Remarks:
Altitude:
(Current/Filed)
36,000ft
Speed:
(Current/Filed)
450kts
Departed: 04-May-18 09:31 PM
Arrived: 04-May-18 10:13 PM
Distance/Time
Traveled:
222nm/0:42
Distance/Time
To Go:
Arrived

Flight Plot

Page will automatically refresh every two minutes.

Flight plan parsing failed; only flown route is shown


Map Options




Map Legend


Flown Route
Filed Route
Departure Airport
Arrival Airport
Navaid (VOR, NDB)
Fix

Horizontal Profiles

Position Reports

Time Latitude Longitude Heading Altitude Ground
Speed
04-May-18 20:57 33.433384 -111.999338 1 1142ft 0kts
04-May-18 20:58 33.433384 -111.999338 1 1142ft 0kts
04-May-18 20:59 33.433384 -111.999338 1 1142ft 0kts
04-May-18 21:00 33.433384 -111.999338 1 1142ft 0kts
04-May-18 21:01 33.433384 -111.999338 1 1142ft 0kts
04-May-18 21:02 33.433384 -111.999338 1 1142ft 0kts
04-May-18 21:03 33.433384 -111.999338 1 1142ft 0kts
04-May-18 21:04 33.433384 -111.999338 1 1142ft 0kts
04-May-18 21:05 33.433384 -111.999338 1 1142ft 0kts
04-May-18 21:06 33.433384 -111.999338 1 1142ft 0kts
04-May-18 21:07 33.433384 -111.999338 1 1142ft 0kts
04-May-18 21:08 33.433384 -111.999338 1 1142ft 0kts
04-May-18 21:09 33.433384 -111.999338 1 1142ft 0kts
04-May-18 21:10 33.433384 -111.999338 1 1142ft 0kts
04-May-18 21:11 33.433384 -111.999338 1 1142ft 0kts
04-May-18 21:12 33.433384 -111.999338 1 1142ft 0kts
04-May-18 21:13 33.433384 -111.999338 1 1142ft 0kts
04-May-18 21:14 33.433384 -111.999338 1 1142ft 0kts
04-May-18 21:15 33.433384 -111.999338 1 1142ft 0kts
04-May-18 21:16 33.433384 -111.999338 1 1142ft 0kts
04-May-18 21:17 33.433384 -111.999338 1 1142ft 0kts
04-May-18 21:18 33.433384 -111.999338 1 1142ft 0kts
04-May-18 21:19 33.433384 -111.999338 1 1142ft 0kts
04-May-18 21:20 33.433384 -111.999338 1 1142ft 0kts
04-May-18 21:21 33.433384 -111.999338 1 1142ft 0kts
04-May-18 21:22 33.433017 -111.999395 24 1142ft 2kts
04-May-18 21:23 33.432843 -111.999952 90 1142ft 0kts
04-May-18 21:24 33.432843 -111.999952 90 1142ft 0kts
04-May-18 21:25 33.432843 -111.999952 90 1142ft 0kts
04-May-18 21:26 33.432843 -111.999950 90 1142ft 0kts
04-May-18 21:27 33.432146 -111.997577 95 1142ft 9kts
04-May-18 21:28 33.432121 -111.994387 90 1142ft 0kts
04-May-18 21:29 33.431942 -111.993443 131 1142ft 0kts
04-May-18 21:30 33.431149 -111.993874 236 1142ft 11kts
04-May-18 21:31 33.431300 -112.028680 270 1584ft 189kts
04-May-18 21:32 33.443554 -112.088232 303 4167ft 222kts
04-May-18 21:33 33.497501 -112.144768 330 7043ft 278kts
04-May-18 21:34 33.573253 -112.179681 343 10645ft 291kts
04-May-18 21:35 33.658573 -112.213273 345 12529ft 360kts
04-May-18 21:36 33.757193 -112.246226 345 15702ft 375kts
04-May-18 21:37 33.859815 -112.279716 344 18666ft 387kts
04-May-18 21:38 33.965554 -112.314147 344 21360ft 400kts
04-May-18 21:39 34.066321 -112.373426 322 23677ft 412kts
04-May-18 21:40 34.155309 -112.462645 320 25748ft 422kts
04-May-18 21:41 34.246273 -112.554642 320 27585ft 431kts
04-May-18 21:42 34.338568 -112.647714 320 29687ft 426kts
04-May-18 21:43 34.429595 -112.739845 319 30265ft 426kts
04-May-18 21:43 34.505074 -112.816743 319 30277ft 426kts
04-May-18 21:44 34.595452 -112.910364 317 30273ft 427kts
04-May-18 21:45 34.683408 -113.006926 317 30275ft 427kts
04-May-18 21:46 34.771561 -113.103369 317 30285ft 427kts
04-May-18 21:47 34.860127 -113.200485 317 30271ft 427kts
04-May-18 21:48 34.948213 -113.297686 317 30256ft 428kts
04-May-18 21:49 35.019783 -113.413159 300 30241ft 428kts
04-May-18 21:50 35.078364 -113.539535 299 30227ft 428kts
04-May-18 21:51 35.136567 -113.664526 299 29285ft 414kts
04-May-18 21:52 35.192466 -113.785672 299 27008ft 402kts
04-May-18 21:53 35.246665 -113.902955 303 24793ft 391kts
04-May-18 21:54 35.322437 -113.991568 322 24215ft 361kts
04-May-18 21:55 35.396542 -114.060432 322 24187ft 306kts
04-May-18 21:56 35.463046 -114.122443 322 22183ft 322kts
04-May-18 21:57 35.540176 -114.194054 322 18652ft 370kts
04-May-18 21:58 35.621233 -114.269841 322 16848ft 352kts
04-May-18 21:59 35.693797 -114.337866 322 15770ft 319kts
04-May-18 22:00 35.767741 -114.396227 338 14071ft 313kts
04-May-18 22:01 35.848701 -114.433218 340 12396ft 308kts
04-May-18 22:02 35.925044 -114.468848 340 11975ft 266kts
04-May-18 22:03 35.983993 -114.511242 297 11976ft 250kts
04-May-18 22:04 36.010800 -114.591897 292 10866ft 256kts
04-May-18 22:05 36.036879 -114.673137 292 9644ft 251kts
04-May-18 22:06 36.061954 -114.752530 292 8443ft 245kts
04-May-18 22:07 36.076043 -114.835042 271 6602ft 252kts
04-May-18 22:08 36.070620 -114.919551 268 4660ft 263kts
04-May-18 22:09 36.073903 -115.002497 272 3361ft 220kts
04-May-18 22:10 36.073528 -115.066806 269 2650ft 174kts
04-May-18 22:11 36.073609 -115.122882 271 2228ft 151kts
04-May-18 22:12 36.073859 -115.155547 313 2122ft 17kts
04-May-18 22:13 36.074532 -115.155687 359 2122ft 9kts
04-May-18 22:14 36.077132 -115.158114 340 2122ft 11kts
04-May-18 22:15 36.077976 -115.154371 91 2122ft 12kts
04-May-18 22:16 36.077750 -115.148477 95 2122ft 24kts

Navigation Log

Ident Type
Flight plan parsing failed, navigation log unavailable